This is the latest recevied weather packets stored in our database for station/object KK6LVQ-13. If no packets are shown the sender has not sent any weather packets the latest 1 day(s).
| Time | Temp. | Humidity | Pressure | Rain* | Wind** | Luminosity | Snow |
|---|---|---|---|---|---|---|---|
| 1778101925 | 22.78° C | 62% | 1023.5 hPa | 0 mm | - | 766 W/m² | - |
| 1778101016 | 22.78° C | 63% | 1023.5 hPa | 0 mm | - | 782 W/m² | - |
| 1778097984 | 22.78° C | 56% | 1024.2 hPa | 0 mm | - | 676 W/m² | - |
| 1778097681 | 22.78° C | 58% | 1024.1 hPa | 0 mm | - | 801 W/m² | - |
| 1778097074 | 21.67° C | 61% | 1024.3 hPa | 0 mm | - | 883 W/m² | - |
| 1778094952 | 20.56° C | 62% | 1024.5 hPa | 0 mm | - | 761 W/m² | - |
| 1778092223 | 20° C | 65% | 1024.8 hPa | 0 mm | - | 735 W/m² | - |
| 1778091012 | 20° C | 65% | 1025 hPa | 0 mm | - | 683 W/m² | - |
| 1778090102 | 18.33° C | 70% | 1025.2 hPa | 0 mm | - | 671 W/m² | - |
| 1778089798 | 19.44° C | 68% | 1025.1 hPa | 0 mm | - | 657 W/m² | - |
| 1778087678 | 16.67° C | 73% | 1025.3 hPa | 0 mm | - | 568 W/m² | - |
| 1778087376 | 17.22° C | 74% | 1025.5 hPa | 0 mm | - | 555 W/m² | - |
| 1778085554 | 15.56° C | 79% | 1025.6 hPa | 0 mm | - | 483 W/m² | - |
| 1778085248 | 16.11° C | 78% | 1025.5 hPa | 0 mm | - | 486 W/m² | - |
| 1778083722 | 13.89° C | 85% | 1025.5 hPa | 0 mm | - | 165 W/m² | - |
| 1778081691 | 12.78° C | 90% | 1025.6 hPa | 0 mm | - | 283 W/m² | - |
| 1778077755 | 10.56° C | 99% | 1025.8 hPa | 0 mm | - | 34 W/m² | - |
| 1778076243 | 10° C | 99% | 1025.5 hPa | 0 mm | - | 37 W/m² | - |
| 1778075940 | 10° C | 99% | 1025.3 hPa | 0 mm | - | 34 W/m² | - |
| 1778075029 | 10° C | 99% | 1025.1 hPa | 0 mm | - | 20 W/m² | - |
| 1778074423 | 10° C | 99% | 1025 hPa | 0 mm | - | 14 W/m² | - |
| 1778073817 | 10° C | 99% | 1024.9 hPa | 0 mm | - | 8 W/m² | - |
| 1778071699 | 10° C | 98% | 1024.7 hPa | 0 mm | - | 0 W/m² | - |
| 1778069580 | 10.56° C | 98% | 1024.4 hPa | 0 mm | - | 0 W/m² | - |
| 1778068975 | 10.56° C | 98% | 1024.5 hPa | 0 mm | - | 0 W/m² | - |
* Rain latest hour (hover to see other rain measurements)
** Current wind speed in m/s (hover to see current wind gust speed)